LEWISTON (LEW)

Elevation: 1870' · TRINITY R basin · Operator: US Bureau of Reclamation

Provisional data, subject to change.
Query executed Saturday at 18:22:01   clock

Select a sensor type for a plot of data.
Note: Reservoir Flows are daily averages.

Earlier

Date RES ELE    STORAGE    RES CHG    OUTFLOW    INFLOW    EVAP    RIV REL    SPILL    DIS PWR   
 FEET   AF   AF   CFS   CFS   CFS   CFS   CFS   CFS  
07/30/2015 1900.68 13675 -170 1997 1918 7 460 310 0
07/31/2015 1900.70 13690 15 2002 2015 5 460 310 0
08/01/2015 1900.60 13617 -73 2021 1990 6 460 310 0
08/02/2015 1900.51 13550 -67 2103 2077 8 460 310 0
08/03/2015 1901.43 14233 683 1801 2149 4 460 310 0
08/04/2015 1901.09 13978 -255 1994 1872 7 462 312 0
08/05/2015 1901.46 14255 277 1915 2060 5 462 312 0
08/06/2015 1900.79 13756 -499 2118 1870 4 461 311 0
08/07/2015 1900.44 13499 -257 2185 2060 5 459 309 0
08/08/2015 1900.61 13624 125 2089 2157 5 459 309 0
08/09/2015 1900.80 13764 140 2102 2177 4 457 307 0
08/10/2015 1900.97 13889 125 1934 2000 3 462 312 0
08/11/2015 1901.36 14180 291 1837 1988 4 460 310 0
08/12/2015 1900.47 13521 -659 2228 1901 5 461 311 0
08/13/2015 1900.41 13477 -- 2060 2045 7 459 309 0
08/14/2015 1900.58 13602 125 1938 2007 6 459 309 0
08/15/2015 1900.75 13727 125 2016 2083 4 462 312 0
08/16/2015 1901.75 14472 745 1742 2123 5 583 433 0
08/17/2015 1900.91 13845 -627 2925 2615 6 1491 1341 0
08/18/2015 1900.49 13536 -309 3337 3186 5 1639 1489 0
08/19/2015 1900.32 13411 -125 2787 2727 3 1300 1150 0
08/20/2015 1900.53 13565 154 2227 2307 2 695 545 0
08/21/2015 1900.77 13742 177 2255 2346 2 668 518 0
08/22/2015 1900.73 13712 -30 2652 2642 5 1154 1004 0
08/23/2015 1900.40 13469 -243 2734 2618 7 1154 1004 0
08/24/2015 1900.30 13396 -73 2709 2678 6 1152 1002 0
08/25/2015 1900.51 13550 154 2631 2717 8 1151 1001 0
08/26/2015 1900.51 13550 0 2715 2722 7 1157 1007 0
08/27/2015 1900.45 13506 -44 2702 2686 6 1154 1004 0
08/28/2015 1900.34 13425 -81 2736 2701 6 1156 1006 0
08/29/2015 -- -- -- -- -- -- -- -- --

Later | Latest

Warning! This data is preliminary and subject to revision.

Show LEW Map | Plot LEW Data | 1 Month LEW Data | Real-Time LEW Data | LEW Info